Terminal Aerodrome Forecast
Issued by NWS Birmingham, AL

Home | Current Version | Previous Version | Text Only | Print | Product List | Glossary On
Versions: 1 2 3 4 5 6 7 8 9 10 11 12 13 14 15 16
000
FTUS44 KBMX 221100
TAFBHM
TAF
KBHM 221130Z 2212/2312 01006KT P6SM BKN050 BKN100
     FM221400 01009KT P6SM SKC
     FM221600 01010G17KT P6SM SKC
     FM230100 04003KT P6SM SKC=

USA.gov is the U.S. government's official web portal to all federal, state and local government web resources and services.